Terminal Aerodrome Forecast
Issued by NWS New Orleans/Baton Rouge, LA

Home | Current Version | Previous Version | Text Only | Print | Product List | Glossary On
Versions: 1 2 3 4 5 6 7 8 9 10 11 12 13 14 15 16 17 18 19
000
FTUS44 KLIX 261737
TAFBTR
TAF
KBTR 261737Z 2618/2718 13008KT P6SM VCTS SCT045CB
     FM270000 14007KT P6SM BKN050
     FM270700 13006KT P6SM BKN015
     FM271000 12006KT 3SM BR BKN003
     FM271500 14010KT P6SM OVC012
     FM271700 14012KT P6SM BKN025=

USA.gov is the U.S. government's official web portal to all federal, state and local government web resources and services.